| time (UTC) | temp C | wind direction | speed KPH | gust KPH | rain 1hr cm | rain 24hr cm | rain mn cm | humidity % | barometer mb |
| 20260509112851 | 19 | 264 | 0.0 | 0.0 | 0.00 | 0.00 | 0.00 | 95 | 1007.2 |
| 20260509112348 | 19 | 273 | 0.0 | 0.0 | 0.00 | 0.00 | 0.00 | 95 | 1007.5 |
| 20260509111846 | 19 | 273 | 0.0 | 0.0 | 0.00 | 0.00 | 0.00 | 95 | 1007.2 |
| 20260509111342 | 19 | 270 | 0.0 | 0.0 | 0.00 | 0.00 | 0.00 | 95 | 1007.2 |
| 20260509110840 | 19 | 287 | 0.0 | 0.0 | 0.00 | 0.00 | 0.00 | 95 | 1007.5 |
| 20260509110336 | 19 | 312 | 0.0 | 0.0 | 0.00 | 0.00 | 0.00 | 95 | 1007.2 |
| 20260509105834 | 19 | 313 | 0.0 | 0.0 | 0.00 | 0.00 | 0.00 | 95 | 1007.2 |
| 20260509105332 | 19 | 313 | 0.0 | 0.0 | 0.00 | 0.00 | 0.00 | 95 | 1006.8 |
| 20260509104828 | 19 | 312 | 0.0 | 0.0 | 0.00 | 0.00 | 0.00 | 95 | 1006.5 |
| 20260509104325 | 19 | 312 | 0.0 | 0.0 | 0.00 | 0.00 | 0.00 | 95 | 1006.5 |
| 20260509103823 | 19 | 30 | 0.0 | 0.0 | 0.00 | 0.00 | 0.00 | 95 | 1006.5 |
| 20260509103320 | 19 | 30 | 0.0 | 0.0 | 0.00 | 0.00 | 0.00 | 94 | 1006.5 |
| 20260509102819 | 19 | 30 | 0.0 | 0.0 | 0.00 | 0.00 | 0.00 | 94 | 1006.8 |
| 20260509102316 | 19 | 30 | 0.0 | 0.0 | 0.00 | 0.00 | 0.00 | 94 | 1006.5 |
| 20260509101812 | 20 | 30 | 0.0 | 0.0 | 0.00 | 0.00 | 0.00 | 93 | 1006.8 |
| 20260509101308 | 20 | 30 | 0.0 | 0.0 | 0.00 | 0.00 | 0.00 | 93 | 1006.5 |
| 20260509100806 | 20 | 30 | 0.0 | 0.0 | 0.00 | 0.00 | 0.00 | 93 | 1006.8 |
| 20260509100303 | 20 | 30 | 0.0 | 0.0 | 0.00 | 0.00 | 0.00 | 93 | 1006.5 |
| 20260509095759 | 20 | 31 | 0.0 | 0.0 | 0.00 | 0.00 | 0.00 | 93 | 1006.2 |
| 20260509095257 | 20 | 31 | 0.0 | 0.0 | 0.00 | 0.00 | 0.00 | 93 | 1006.2 |
| 20260509094753 | 20 | 138 | 0.0 | 0.0 | 0.00 | 0.00 | 0.00 | 92 | 1005.7 |
| 20260509094250 | 20 | 19 | 0.0 | 0.0 | 0.00 | 0.00 | 0.00 | 92 | 1005.7 |
| 20260509093748 | 20 | 19 | 0.0 | 0.0 | 0.00 | 0.00 | 0.00 | 92 | 1005.7 |
| 20260509093245 | 20 | 30 | 0.0 | 0.0 | 0.00 | 0.00 | 0.00 | 92 | 1005.7 |
| 20260509092744 | 20 | 30 | 0.0 | 0.0 | 0.00 | 0.00 | 0.00 | 92 | 1005.7 |
| 20260509092241 | 21 | 38 | 0.0 | 0.0 | 0.00 | 0.00 | 0.00 | 92 | 1005.7 |
| 20260509091739 | 21 | 228 | 6.4 | 8.0 | 0.00 | 0.00 | 0.00 | 92 | 1005.7 |
| 20260509091235 | 21 | 51 | 3.2 | 3.2 | 0.00 | 0.00 | 0.00 | 92 | 1005.7 |
| 20260509090734 | 21 | 54 | 3.2 | 3.2 | 0.00 | 0.00 | 0.00 | 92 | 1005.7 |
| 20260509090230 | 21 | 36 | 0.0 | 0.0 | 0.00 | 0.00 | 0.00 | 91 | 1006.2 |
| 20260509085727 | 21 | 42 | 0.0 | 0.0 | 0.00 | 0.00 | 0.00 | 91 | 1005.7 |
| 20260509085224 | 21 | 287 | 3.2 | 3.2 | 0.00 | 0.00 | 0.00 | 91 | 1005.7 |
| 20260509084721 | 21 | 320 | 4.8 | 4.8 | 0.00 | 0.00 | 0.00 | 90 | 1005.4 |
| 20260509084217 | 21 | 318 | 3.2 | 3.2 | 0.00 | 0.00 | 0.00 | 90 | 1005.4 |
| 20260509083716 | 21 | 82 | 4.8 | 6.4 | 0.00 | 0.00 | 0.00 | 89 | 1005.4 |
| 20260509083212 | 21 | 60 | 4.8 | 4.8 | 0.00 | 0.00 | 0.00 | 89 | 1005.4 |
| 20260509082709 | 21 | 309 | 8.0 | 9.7 | 0.00 | 0.00 | 0.00 | 89 | 1004.4 |
| 20260509082205 | 21 | 252 | 0.0 | 0.0 | 0.00 | 0.00 | 0.00 | 89 | 1004.4 |
| 20260509081702 | 21 | 247 | 0.0 | 0.0 | 0.00 | 0.00 | 0.00 | 89 | 1004.4 |
| 20260509081159 | 21 | 256 | 0.0 | 0.0 | 0.00 | 0.00 | 0.00 | 89 | 1004.4 |
| 20260509080658 | 21 | 188 | 0.0 | 0.0 | 0.00 | 0.00 | 0.00 | 89 | 1004.4 |
| 20260509080155 | 21 | 241 | 0.0 | 0.0 | 0.00 | 0.00 | 0.00 | 89 | 1004.4 |
| 20260509075653 | 21 | 107 | 0.0 | 0.0 | 0.00 | 0.00 | 0.00 | 89 | 1005.0 |
| 20260509075151 | 21 | 241 | 0.0 | 0.0 | 0.00 | 0.00 | 0.00 | 89 | 1005.0 |
| 20260509074647 | 21 | 88 | 0.0 | 0.0 | 0.00 | 0.00 | 0.00 | 88 | 1005.0 |
| 20260509074144 | 21 | 63 | 0.0 | 0.0 | 0.00 | 0.00 | 0.00 | 88 | 1005.4 |
| 20260509073641 | 21 | 221 | 0.0 | 0.0 | 0.00 | 0.00 | 0.00 | 88 | 1006.2 |
| 20260509073137 | 21 | 188 | 0.0 | 0.0 | 0.00 | 0.00 | 0.00 | 88 | 1006.5 |
| 20260509072634 | 21 | 188 | 0.0 | 0.0 | 0.00 | 0.00 | 0.00 | 88 | 1006.5 |
| 20260509072131 | 21 | 231 | 0.0 | 0.0 | 0.00 | 0.00 | 0.00 | 88 | 1006.5 |
| 20260509071627 | 21 | 185 | 0.0 | 0.0 | 0.00 | 0.00 | 0.00 | 89 | 1006.5 |
| 20260509071125 | 21 | 246 | 0.0 | 0.0 | 0.00 | 0.00 | 0.00 | 89 | 1006.5 |
| 20260509070622 | 21 | 273 | 0.0 | 0.0 | 0.00 | 0.00 | 0.00 | 89 | 1006.8 |
| 20260509070118 | 21 | 200 | 0.0 | 0.0 | 0.00 | 0.00 | 0.00 | 89 | 1006.8 |
| 20260509065613 | 21 | 204 | 0.0 | 0.0 | 0.00 | 0.00 | 0.00 | 89 | 1006.8 |
| 20260509065110 | 21 | 212 | 0.0 | 0.0 | 0.00 | 0.00 | 0.00 | 89 | 1006.8 |
| 20260509064607 | 21 | 215 | 3.2 | 3.2 | 0.00 | 0.00 | 0.00 | 89 | 1007.5 |
| 20260509064106 | 21 | 214 | 0.0 | 0.0 | 0.00 | 0.00 | 0.00 | 89 | 1007.5 |
| 20260509063601 | 21 | 193 | 0.0 | 0.0 | 0.00 | 0.00 | 0.00 | 89 | 1007.5 |
| 20260509063058 | 21 | 221 | 0.0 | 0.0 | 0.00 | 0.00 | 0.00 | 89 | 1007.9 |
| 20260509062555 | 21 | 222 | 1.6 | 1.6 | 0.00 | 0.00 | 0.00 | 89 | 1007.9 |
| 20260509062053 | 21 | 228 | 0.0 | 0.0 | 0.00 | 0.00 | 0.00 | 89 | 1007.9 |
| 20260509061549 | 21 | 228 | 0.0 | 0.0 | 0.00 | 0.00 | 0.00 | 89 | 1007.9 |
| 20260509061047 | 21 | 228 | 0.0 | 0.0 | 0.00 | 0.00 | 0.00 | 89 | 1007.9 |
| 20260509060544 | 20 | 242 | 0.0 | 0.0 | 0.00 | 0.00 | 0.00 | 89 | 1007.5 |
| 20260509060040 | 20 | 242 | 0.0 | 0.0 | 0.00 | 0.00 | 0.00 | 89 | 1007.9 |
| 20260509055536 | 20 | 242 | 0.0 | 0.0 | 0.00 | 0.00 | 0.00 | 90 | 1007.5 |
| 20260509055032 | 20 | 240 | 0.0 | 0.0 | 0.00 | 0.00 | 0.00 | 90 | 1007.5 |
| 20260509054529 | 20 | 252 | 0.0 | 0.0 | 0.00 | 0.00 | 0.00 | 90 | 1007.9 |
| 20260509054027 | 20 | 252 | 0.0 | 0.0 | 0.00 | 0.00 | 0.00 | 90 | 1007.9 |
| 20260509053525 | 20 | 252 | 0.0 | 0.0 | 0.00 | 0.00 | 0.00 | 90 | 1008.2 |
| 20260509053016 | 20 | 252 | 0.0 | 0.0 | 0.00 | 0.00 | 0.00 | 89 | 1007.9 |
| 20260509052513 | 20 | 252 | 0.0 | 0.0 | 0.00 | 0.00 | 0.00 | 88 | 1008.2 |
| 20260509052011 | 20 | 252 | 0.0 | 0.0 | 0.00 | 0.00 | 0.00 | 88 | 1008.2 |
| 20260509051509 | 21 | 252 | 0.0 | 0.0 | 0.00 | 0.00 | 0.00 | 87 | 1008.5 |
| 20260509051006 | 21 | 252 | 0.0 | 0.0 | 0.00 | 0.00 | 0.00 | 86 | 1008.9 |
| 20260509050502 | 21 | 252 | 0.0 | 0.0 | 0.00 | 0.00 | 0.00 | 85 | 1008.9 |
| 20260509045959 | 21 | 252 | 0.0 | 0.0 | 0.00 | 0.05 | 0.05 | 85 | 1009.2 |
| 20260509045456 | 21 | 252 | 0.0 | 0.0 | 0.00 | 0.05 | 0.05 | 85 | 1009.6 |
| 20260509044953 | 21 | 324 | 0.0 | 0.0 | 0.00 | 0.05 | 0.05 | 85 | 1009.6 |
| 20260509044451 | 21 | 306 | 3.2 | 3.2 | 0.00 | 0.05 | 0.05 | 85 | 1009.6 |
| 20260509043948 | 21 | 318 | 8.0 | 8.0 | 0.00 | 0.05 | 0.05 | 86 | 1009.2 |
| 20260509043443 | 21 | 312 | 0.0 | 0.0 | 0.00 | 0.05 | 0.05 | 87 | 1008.2 |
| 20260509042939 | 21 | 221 | 0.0 | 0.0 | 0.00 | 0.05 | 0.05 | 87 | 1007.9 |
| 20260509042437 | 21 | 221 | 0.0 | 0.0 | 0.00 | 0.05 | 0.05 | 86 | 1007.9 |
| 20260509041932 | 21 | 221 | 0.0 | 0.0 | 0.00 | 0.05 | 0.05 | 86 | 1007.9 |
| 20260509041429 | 21 | 221 | 0.0 | 0.0 | 0.00 | 0.05 | 0.05 | 86 | 1008.2 |
| 20260509040927 | 21 | 221 | 0.0 | 0.0 | 0.00 | 0.05 | 0.05 | 85 | 1008.2 |
| 20260509040425 | 21 | 221 | 0.0 | 0.0 | 0.00 | 0.05 | 0.05 | 86 | 1008.2 |
| 20260509035922 | 21 | 221 | 0.0 | 0.0 | 0.00 | 0.05 | 0.05 | 86 | 1008.2 |
| 20260509035419 | 21 | 221 | 0.0 | 0.0 | 0.00 | 0.05 | 0.05 | 86 | 1007.5 |
| 20260509034915 | 21 | 221 | 0.0 | 0.0 | 0.00 | 0.05 | 0.05 | 85 | 1007.2 |
| 20260509034413 | 21 | 221 | 0.0 | 0.0 | 0.00 | 0.05 | 0.05 | 85 | 1007.2 |
| 20260509033910 | 21 | 221 | 0.0 | 0.0 | 0.00 | 0.05 | 0.05 | 85 | 1007.2 |
| 20260509033407 | 21 | 221 | 0.0 | 0.0 | 0.00 | 0.05 | 0.05 | 85 | 1007.2 |
| 20260509032903 | 21 | 221 | 0.0 | 0.0 | 0.00 | 0.05 | 0.05 | 84 | 1007.2 |
| 20260509032400 | 21 | 221 | 0.0 | 0.0 | 0.00 | 0.05 | 0.05 | 84 | 1006.8 |
| 20260509031859 | 21 | 252 | 0.0 | 0.0 | 0.00 | 0.05 | 0.05 | 84 | 1007.2 |
| 20260509031356 | 21 | 28 | 0.0 | 0.0 | 0.00 | 0.05 | 0.05 | 84 | 1007.5 |
| 20260509030853 | 21 | 27 | 0.0 | 0.0 | 0.00 | 0.05 | 0.05 | 84 | 1008.2 |
| 20260509030351 | 21 | 27 | 0.0 | 0.0 | 0.00 | 0.05 | 0.05 | 84 | 1008.5 |
| 20260509025848 | 21 | 308 | 0.0 | 0.0 | 0.00 | 0.05 | 0.05 | 85 | 1008.5 |
| 20260509025343 | 21 | 11 | 0.0 | 0.0 | 0.00 | 0.05 | 0.05 | 85 | 1008.5 |
| 20260509024839 | 21 | 200 | 0.0 | 0.0 | 0.00 | 0.05 | 0.05 | 85 | 1008.2 |
| 20260509024335 | 21 | 210 | 0.0 | 0.0 | 0.00 | 0.05 | 0.05 | 86 | 1007.9 |
| 20260509023832 | 21 | 210 | 0.0 | 0.0 | 0.00 | 0.05 | 0.05 | 86 | 1007.5 |
| 20260509023330 | 21 | 210 | 0.0 | 0.0 | 0.00 | 0.05 | 0.05 | 86 | 1007.2 |
| 20260509022826 | 21 | 210 | 0.0 | 0.0 | 0.00 | 0.05 | 0.05 | 84 | 1007.2 |
| 20260509022324 | 21 | 210 | 0.0 | 0.0 | 0.00 | 0.05 | 0.05 | 84 | 1006.5 |
| 20260509021820 | 21 | 210 | 0.0 | 0.0 | 0.00 | 0.05 | 0.05 | 84 | 1006.5 |
| 20260509021317 | 21 | 210 | 0.0 | 0.0 | 0.00 | 0.05 | 0.05 | 83 | 1006.2 |
| 20260509020815 | 22 | 210 | 0.0 | 0.0 | 0.00 | 0.05 | 0.05 | 83 | 1006.2 |
| 20260509020313 | 22 | 210 | 0.0 | 0.0 | 0.00 | 0.05 | 0.05 | 82 | 1005.7 |
| 20260509015810 | 22 | 199 | 0.0 | 0.0 | 0.00 | 0.05 | 0.05 | 82 | 1006.2 |
| 20260509015308 | 22 | 342 | 0.0 | 0.0 | 0.00 | 0.05 | 0.05 | 82 | 1005.7 |
| 20260509014804 | 22 | 326 | 3.2 | 3.2 | 0.00 | 0.05 | 0.05 | 81 | 1006.2 |
| 20260509014302 | 22 | 326 | 0.0 | 0.0 | 0.00 | 0.05 | 0.05 | 81 | 1006.2 |
| 20260509013758 | 22 | 326 | 0.0 | 0.0 | 0.00 | 0.05 | 0.05 | 80 | 1005.7 |
| 20260509013254 | 22 | 294 | 0.0 | 0.0 | 0.00 | 0.05 | 0.05 | 79 | 1005.7 |
| 20260509012751 | 22 | 241 | 0.0 | 0.0 | 0.00 | 0.05 | 0.05 | 78 | 1005.7 |
| 20260509012247 | 23 | 240 | 0.0 | 0.0 | 0.00 | 0.05 | 0.05 | 77 | 1005.7 |
| 20260509011745 | 23 | 241 | 0.0 | 0.0 | 0.00 | 0.05 | 0.05 | 77 | 1006.5 |
| 20260509011242 | 23 | 241 | 0.0 | 0.0 | 0.00 | 0.05 | 0.05 | 76 | 1006.5 |
| 20260509010740 | 23 | 241 | 0.0 | 0.0 | 0.00 | 0.05 | 0.05 | 76 | 1006.5 |
| 20260509010237 | 23 | 241 | 0.0 | 0.0 | 0.00 | 0.05 | 0.05 | 75 | 1006.5 |
| 20260509005735 | 23 | 241 | 0.0 | 0.0 | 0.00 | 0.05 | 0.05 | 75 | 1006.5 |
| 20260509005232 | 23 | 234 | 0.0 | 0.0 | 0.00 | 0.05 | 0.05 | 75 | 1006.2 |
| 20260509004731 | 23 | 234 | 0.0 | 0.0 | 0.00 | 0.05 | 0.05 | 74 | 1006.2 |
| 20260509004229 | 23 | 234 | 0.0 | 0.0 | 0.00 | 0.05 | 0.05 | 74 | 1006.2 |
| 20260509003727 | 23 | 234 | 0.0 | 0.0 | 0.00 | 0.05 | 0.05 | 73 | 1006.2 |
| 20260509003224 | 24 | 227 | 0.0 | 0.0 | 0.00 | 0.05 | 0.05 | 72 | 1005.7 |
| 20260509002721 | 24 | 223 | 0.0 | 0.0 | 0.00 | 0.05 | 0.05 | 72 | 1005.7 |
| 20260509002219 | 24 | 223 | 0.0 | 0.0 | 0.00 | 0.05 | 0.05 | 72 | 1005.4 |
| 20260509001717 | 24 | 223 | 0.0 | 0.0 | 0.00 | 0.05 | 0.05 | 71 | 1005.7 |
| 20260509001212 | 24 | 72 | 6.4 | 6.4 | 0.00 | 0.05 | 0.05 | 71 | 1005.4 |
| 20260509000710 | 24 | 229 | 0.0 | 0.0 | 0.00 | 0.05 | 0.05 | 70 | 1005.4 |
| 20260509000207 | 25 | 222 | 3.2 | 3.2 | 0.00 | 0.05 | 0.05 | 70 | 1005.4 |
| 20260508235704 | 25 | 240 | 0.0 | 0.0 | 0.00 | 0.05 | 0.05 | 70 | 1005.4 |
| 20260508235200 | 25 | 241 | 0.0 | 0.0 | 0.00 | 0.05 | 0.05 | 69 | 1005.4 |
| 20260508234658 | 25 | 242 | 3.2 | 3.2 | 0.00 | 0.05 | 0.05 | 69 | 1005.7 |
| 20260508234154 | 25 | 217 | 0.0 | 0.0 | 0.00 | 0.05 | 0.05 | 69 | 1006.2 |
| 20260508233654 | 25 | 236 | 0.0 | 0.0 | 0.00 | 0.05 | 0.05 | 69 | 1006.2 |
| 20260508233151 | 25 | 247 | 3.2 | 3.2 | 0.00 | 0.05 | 0.05 | 69 | 1006.2 |
| 20260508232648 | 25 | 241 | 0.0 | 0.0 | 0.00 | 0.05 | 0.05 | 68 | 1005.7 |
| 20260508232145 | 25 | 222 | 1.6 | 1.6 | 0.00 | 0.05 | 0.05 | 67 | 1005.7 |
| 20260508231643 | 25 | 208 | 0.0 | 0.0 | 0.00 | 0.05 | 0.05 | 66 | 1006.2 |
| 20260508231139 | 25 | 236 | 0.0 | 0.0 | 0.00 | 0.05 | 0.05 | 67 | 1006.2 |
| 20260508230636 | 25 | 236 | 0.0 | 0.0 | 0.00 | 0.05 | 0.05 | 65 | 1005.7 |
| 20260508230132 | 25 | 252 | 0.0 | 0.0 | 0.00 | 0.05 | 0.05 | 66 | 1005.7 |
| 20260508225631 | 25 | 233 | 0.0 | 0.0 | 0.00 | 0.05 | 0.05 | 66 | 1005.7 |
| 20260508225126 | 25 | 227 | 0.0 | 0.0 | 0.00 | 0.05 | 0.05 | 67 | 1006.2 |
| 20260508224624 | 25 | 238 | 0.0 | 0.0 | 0.00 | 0.05 | 0.05 | 67 | 1006.2 |
| 20260508224122 | 25 | 242 | 0.0 | 0.0 | 0.00 | 0.05 | 0.05 | 68 | 1005.7 |
| 20260508223619 | 25 | 222 | 0.0 | 0.0 | 0.00 | 0.05 | 0.05 | 66 | 1005.7 |
| 20260508223116 | 25 | 209 | 1.6 | 1.6 | 0.00 | 0.05 | 0.05 | 65 | 1006.2 |
| 20260508222614 | 25 | 246 | 0.0 | 0.0 | 0.00 | 0.05 | 0.05 | 66 | 1006.2 |
| 20260508222111 | 25 | 233 | 0.0 | 0.0 | 0.00 | 0.05 | 0.05 | 68 | 1006.2 |
| 20260508221607 | 25 | 234 | 0.0 | 0.0 | 0.00 | 0.05 | 0.05 | 67 | 1006.2 |
| 20260508221103 | 25 | 108 | 0.0 | 0.0 | 0.00 | 0.05 | 0.05 | 66 | 1006.2 |
| 20260508220559 | 25 | 222 | 0.0 | 0.0 | 0.00 | 0.05 | 0.05 | 67 | 1006.2 |
| 20260508220055 | 25 | 239 | 0.0 | 0.0 | 0.00 | 0.05 | 0.05 | 66 | 1006.5 |
| 20260508215553 | 25 | 232 | 3.2 | 3.2 | 0.00 | 0.05 | 0.05 | 67 | 1006.5 |
| 20260508215049 | 25 | 234 | 0.0 | 0.0 | 0.00 | 0.05 | 0.05 | 66 | 1006.5 |
| 20260508214547 | 25 | 256 | 0.0 | 0.0 | 0.00 | 0.05 | 0.05 | 64 | 1006.5 |
| 20260508214043 | 25 | 36 | 0.0 | 0.0 | 0.00 | 0.05 | 0.05 | 63 | 1006.5 |
| 20260508213541 | 25 | 239 | 3.2 | 3.2 | 0.00 | 0.05 | 0.05 | 64 | 1006.5 |
| 20260508213036 | 25 | 252 | 0.0 | 0.0 | 0.00 | 0.05 | 0.05 | 64 | 1006.5 |
| 20260508212533 | 25 | 223 | 3.2 | 3.2 | 0.00 | 0.05 | 0.05 | 64 | 1006.2 |
| 20260508212029 | 25 | 102 | 0.0 | 0.0 | 0.00 | 0.05 | 0.05 | 63 | 1006.2 |
| 20260508211525 | 25 | 222 | 6.4 | 6.4 | 0.00 | 0.05 | 0.05 | 62 | 1006.5 |
| 20260508211021 | 25 | 204 | 0.0 | 0.0 | 0.00 | 0.05 | 0.05 | 63 | 1006.5 |
| 20260508210518 | 25 | 215 | 6.4 | 6.4 | 0.00 | 0.05 | 0.05 | 61 | 1006.5 |
| 20260508210016 | 25 | 246 | 0.0 | 0.0 | 0.00 | 0.05 | 0.05 | 62 | 1006.5 |
| 20260508205512 | 25 | 120 | 0.0 | 0.0 | 0.00 | 0.05 | 0.05 | 65 | 1006.8 |
| 20260508205008 | 25 | 240 | 0.0 | 0.0 | 0.00 | 0.05 | 0.05 | 65 | 1006.8 |
| 20260508204506 | 25 | 251 | 0.0 | 0.0 | 0.00 | 0.05 | 0.05 | 65 | 1007.2 |
| 20260508204001 | 25 | 234 | 0.0 | 0.0 | 0.00 | 0.05 | 0.05 | 65 | 1007.5 |
| 20260508203457 | 25 | 223 | 0.0 | 0.0 | 0.00 | 0.05 | 0.05 | 64 | 1007.9 |
| 20260508202953 | 25 | 213 | 4.8 | 6.4 | 0.00 | 0.05 | 0.05 | 63 | 1007.9 |
| 20260508202450 | 26 | 248 | 3.2 | 3.2 | 0.00 | 0.05 | 0.05 | 62 | 1008.2 |
| 20260508201947 | 25 | 252 | 0.0 | 0.0 | 0.00 | 0.05 | 0.05 | 65 | 1008.2 |
| 20260508201444 | 26 | 228 | 0.0 | 0.0 | 0.00 | 0.05 | 0.05 | 61 | 1008.2 |
| 20260508200941 | 26 | 210 | 0.0 | 0.0 | 0.00 | 0.05 | 0.05 | 61 | 1008.2 |
| 20260508200438 | 26 | 186 | 0.0 | 0.0 | 0.00 | 0.05 | 0.05 | 62 | 1007.9 |
| 20260508195932 | 26 | 233 | 0.0 | 0.0 | 0.00 | 0.05 | 0.05 | 63 | 1008.2 |
| 20260508195430 | 26 | 186 | 0.0 | 0.0 | 0.00 | 0.05 | 0.05 | 63 | 1008.2 |
| 20260508194926 | 26 | 216 | 0.0 | 0.0 | 0.00 | 0.05 | 0.05 | 63 | 1008.2 |
| 20260508194424 | 25 | 55 | 4.8 | 6.4 | 0.00 | 0.05 | 0.05 | 65 | 1008.2 |
| 20260508193921 | 25 | 235 | 0.0 | 0.0 | 0.00 | 0.05 | 0.05 | 63 | 1008.5 |
| 20260508193418 | 25 | 256 | 0.0 | 0.0 | 0.00 | 0.05 | 0.05 | 63 | 1008.2 |
| 20260508192914 | 25 | 204 | 0.0 | 0.0 | 0.00 | 0.05 | 0.05 | 63 | 1008.5 |
| 20260508192411 | 25 | 219 | 0.0 | 0.0 | 0.00 | 0.05 | 0.05 | 60 | 1008.5 |
| 20260508191908 | 25 | 232 | 0.0 | 0.0 | 0.00 | 0.05 | 0.05 | 62 | 1008.5 |
| 20260508191405 | 26 | 246 | 0.0 | 0.0 | 0.00 | 0.05 | 0.05 | 58 | 1008.2 |
| 20260508190902 | 26 | 260 | 0.0 | 0.0 | 0.00 | 0.05 | 0.05 | 58 | 1008.5 |
| 20260508190359 | 26 | 229 | 0.0 | 0.0 | 0.00 | 0.05 | 0.05 | 61 | 1008.5 |
| 20260508185855 | 25 | 84 | 0.0 | 0.0 | 0.00 | 0.05 | 0.05 | 63 | 1008.5 |
| 20260508185353 | 25 | 42 | 0.0 | 0.0 | 0.00 | 0.05 | 0.05 | 61 | 1008.5 |
| 20260508184850 | 25 | 222 | 0.0 | 0.0 | 0.00 | 0.05 | 0.05 | 60 | 1008.5 |
| 20260508184347 | 25 | 216 | 4.8 | 4.8 | 0.00 | 0.05 | 0.05 | 63 | 1008.9 |
| 20260508183843 | 25 | 226 | 4.8 | 4.8 | 0.00 | 0.05 | 0.05 | 61 | 1008.9 |
| 20260508183340 | 25 | 228 | 4.8 | 4.8 | 0.00 | 0.05 | 0.05 | 63 | 1008.9 |
| 20260508182836 | 25 | 52 | 0.0 | 0.0 | 0.00 | 0.05 | 0.05 | 62 | 1008.9 |
| 20260508182333 | 24 | 162 | 0.0 | 0.0 | 0.00 | 0.05 | 0.05 | 63 | 1009.2 |
| 20260508181828 | 25 | 206 | 8.0 | 9.7 | 0.00 | 0.05 | 0.05 | 61 | 1009.2 |
| 20260508181320 | 25 | 209 | 0.0 | 0.0 | 0.00 | 0.05 | 0.05 | 62 | 1009.2 |
| 20260508180817 | 25 | 105 | 0.0 | 0.0 | 0.00 | 0.05 | 0.05 | 63 | 1009.6 |
| 20260508180314 | 24 | 74 | 0.0 | 0.0 | 0.00 | 0.05 | 0.05 | 62 | 1009.6 |
| 20260508175810 | 24 | 216 | 0.0 | 0.0 | 0.00 | 0.05 | 0.05 | 63 | 1009.9 |
| 20260508175307 | 23 | 42 | 0.0 | 0.0 | 0.00 | 0.05 | 0.05 | 64 | 1009.6 |
| 20260508174805 | 24 | 312 | 0.0 | 0.0 | 0.00 | 0.05 | 0.05 | 63 | 1009.9 |
| 20260508174302 | 24 | 36 | 0.0 | 0.0 | 0.00 | 0.05 | 0.05 | 61 | 1009.9 |
| 20260508173758 | 24 | 272 | 0.0 | 0.0 | 0.00 | 0.05 | 0.05 | 62 | 1009.9 |
| 20260508173255 | 23 | 216 | 4.8 | 4.8 | 0.00 | 0.05 | 0.05 | 61 | 1009.9 |
| 20260508172751 | 23 | 289 | 0.0 | 0.0 | 0.00 | 0.05 | 0.05 | 65 | 1009.9 |
| 20260508172248 | 23 | 194 | 0.0 | 0.0 | 0.00 | 0.05 | 0.05 | 65 | 1010.2 |
| 20260508171745 | 23 | 209 | 3.2 | 3.2 | 0.00 | 0.05 | 0.05 | 66 | 1010.2 |
| 20260508171241 | 23 | 299 | 3.2 | 3.2 | 0.00 | 0.05 | 0.05 | 65 | 1010.2 |
| 20260508170738 | 23 | 229 | 0.0 | 0.0 | 0.00 | 0.05 | 0.05 | 64 | 1010.6 |
| 20260508170236 | 23 | 79 | 0.0 | 0.0 | 0.00 | 0.05 | 0.05 | 66 | 1010.6 |
| 20260508165732 | 23 | 209 | 0.0 | 0.0 | 0.00 | 0.05 | 0.05 | 67 | 1010.6 |
| 20260508165230 | 23 | 174 | 0.0 | 0.0 | 0.00 | 0.05 | 0.05 | 68 | 1010.9 |
| 20260508164726 | 23 | 258 | 0.0 | 0.0 | 0.00 | 0.05 | 0.05 | 65 | 1010.9 |
| 20260508164222 | 22 | 210 | 3.2 | 3.2 | 0.00 | 0.05 | 0.05 | 64 | 1011.2 |
| 20260508163720 | 22 | 132 | 0.0 | 0.0 | 0.00 | 0.05 | 0.05 | 65 | 1011.2 |
| 20260508163218 | 22 | 210 | 0.0 | 0.0 | 0.00 | 0.05 | 0.05 | 68 | 1011.2 |
| 20260508162713 | 22 | 246 | 4.8 | 6.4 | 0.00 | 0.05 | 0.05 | 70 | 1011.2 |
| 20260508162211 | 22 | 246 | 0.0 | 0.0 | 0.00 | 0.05 | 0.05 | 71 | 1011.6 |
| 20260508161708 | 21 | 246 | 0.0 | 0.0 | 0.00 | 0.05 | 0.05 | 71 | 1011.2 |
| 20260508161205 | 21 | 246 | 0.0 | 0.0 | 0.00 | 0.05 | 0.05 | 75 | 1011.2 |
| 20260508160703 | 21 | 246 | 0.0 | 0.0 | 0.00 | 0.05 | 0.05 | 73 | 1011.6 |
| 20260508160201 | 21 | 246 | 0.0 | 0.0 | 0.00 | 0.05 | 0.05 | 76 | 1011.6 |
| 20260508155657 | 21 | 34 | 3.2 | 3.2 | 0.00 | 0.05 | 0.05 | 72 | 1011.6 |
| 20260508155154 | 21 | 214 | 0.0 | 0.0 | 0.00 | 0.05 | 0.05 | 74 | 1011.6 |
| 20260508154651 | 21 | 96 | 0.0 | 0.0 | 0.00 | 0.05 | 0.05 | 75 | 1011.6 |
| 20260508154148 | 20 | 199 | 0.0 | 0.0 | 0.00 | 0.05 | 0.05 | 74 | 1012.0 |
| 20260508153645 | 20 | 199 | 0.0 | 0.0 | 0.00 | 0.05 | 0.05 | 76 | 1012.0 |
| 20260508153142 | 19 | 180 | 0.0 | 0.0 | 0.00 | 0.05 | 0.05 | 79 | 1012.0 |
| 20260508152638 | 19 | 180 | 0.0 | 0.0 | 0.00 | 0.05 | 0.05 | 79 | 1012.0 |
| 20260508152134 | 19 | 191 | 0.0 | 0.0 | 0.00 | 0.05 | 0.05 | 79 | 1012.0 |
| 20260508151631 | 18 | 178 | 0.0 | 0.0 | 0.00 | 0.05 | 0.05 | 79 | 1012.0 |
| 20260508151127 | 18 | 78 | 0.0 | 0.0 | 0.00 | 0.05 | 0.05 | 79 | 1012.0 |
| 20260508150624 | 18 | 78 | 0.0 | 0.0 | 0.00 | 0.05 | 0.05 | 79 | 1012.7 |
| 20260508150120 | 18 | 246 | 0.0 | 0.0 | 0.00 | 0.05 | 0.05 | 80 | 1012.7 |
| 20260508145611 | 19 | 246 | 0.0 | 0.0 | 0.00 | 0.05 | 0.05 | 78 | 1012.4 |
| 20260508145108 | 19 | 246 | 0.0 | 0.0 | 0.00 | 0.05 | 0.05 | 77 | 1012.0 |
| 20260508144606 | 19 | 257 | 0.0 | 0.0 | 0.00 | 0.05 | 0.05 | 80 | 1012.0 |
| 20260508144103 | 19 | 246 | 0.0 | 0.0 | 0.00 | 0.05 | 0.05 | 79 | 1012.4 |
| 20260508143600 | 18 | 102 | 0.0 | 0.0 | 0.00 | 0.05 | 0.05 | 82 | 1012.4 |
| 20260508143057 | 18 | 227 | 0.0 | 0.0 | 0.00 | 0.05 | 0.05 | 84 | 1012.4 |
| 20260508142553 | 18 | 227 | 0.0 | 0.0 | 0.00 | 0.05 | 0.05 | 85 | 1012.4 |
| 20260508142049 | 18 | 227 | 0.0 | 0.0 | 0.00 | 0.05 | 0.05 | 85 | 1012.4 |
| 20260508141546 | 18 | 227 | 0.0 | 0.0 | 0.00 | 0.05 | 0.05 | 84 | 1012.7 |
| 20260508141044 | 18 | 227 | 0.0 | 0.0 | 0.00 | 0.05 | 0.05 | 84 | 1012.7 |
| 20260508140541 | 18 | 227 | 0.0 | 0.0 | 0.00 | 0.05 | 0.05 | 81 | 1012.4 |
| 20260508140037 | 18 | 227 | 0.0 | 0.0 | 0.00 | 0.05 | 0.05 | 81 | 1012.7 |
| 20260508135532 | 18 | 228 | 0.0 | 0.0 | 0.00 | 0.05 | 0.05 | 81 | 1012.7 |
| 20260508135029 | 17 | 145 | 0.0 | 0.0 | 0.00 | 0.05 | 0.05 | 88 | 1012.7 |
| 20260508134526 | 17 | 145 | 0.0 | 0.0 | 0.00 | 0.05 | 0.05 | 88 | 1012.4 |
| 20260508134023 | 17 | 145 | 0.0 | 0.0 | 0.00 | 0.05 | 0.05 | 89 | 1012.7 |
| 20260508133520 | 17 | 145 | 0.0 | 0.0 | 0.00 | 0.05 | 0.05 | 90 | 1012.7 |
| 20260508133017 | 17 | 145 | 0.0 | 0.0 | 0.00 | 0.05 | 0.05 | 90 | 1012.7 |
| 20260508132515 | 17 | 145 | 0.0 | 0.0 | 0.00 | 0.05 | 0.05 | 90 | 1012.7 |
| 20260508132011 | 17 | 145 | 0.0 | 0.0 | 0.00 | 0.05 | 0.05 | 91 | 1012.7 |
| 20260508131506 | 17 | 113 | 0.0 | 0.0 | 0.00 | 0.05 | 0.05 | 91 | 1012.7 |
| 20260508131003 | 16 | 113 | 0.0 | 0.0 | 0.00 | 0.05 | 0.05 | 92 | 1012.4 |
| 20260508130501 | 16 | 113 | 0.0 | 0.0 | 0.00 | 0.05 | 0.05 | 93 | 1012.7 |
| 20260508125956 | 16 | 234 | 0.0 | 0.0 | 0.05 | 0.05 | 0.05 | 93 | 1012.7 |
| 20260508125453 | 16 | 234 | 0.0 | 0.0 | 0.05 | 0.05 | 0.05 | 93 | 1012.4 |
| 20260508124950 | 16 | 234 | 0.0 | 0.0 | 0.05 | 0.05 | 0.05 | 93 | 1012.4 |
| 20260508124448 | 16 | 234 | 0.0 | 0.0 | 0.05 | 0.05 | 0.05 | 94 | 1012.4 |
| 20260508123945 | 16 | 234 | 0.0 | 0.0 | 0.05 | 0.05 | 0.05 | 94 | 1012.7 |
| 20260508123444 | 16 | 234 | 0.0 | 0.0 | 0.05 | 0.05 | 0.05 | 94 | 1012.4 |
| 20260508122940 | 16 | 234 | 0.0 | 0.0 | 0.05 | 0.05 | 0.05 | 94 | 1012.4 |
| 20260508122437 | 16 | 234 | 0.0 | 0.0 | 0.05 | 0.05 | 0.05 | 94 | 1012.4 |
| 20260508121934 | 16 | 234 | 0.0 | 0.0 | 0.05 | 0.05 | 0.05 | 94 | 1012.7 |
| 20260508121432 | 16 | 234 | 0.0 | 0.0 | 0.05 | 0.05 | 0.05 | 94 | 1012.7 |
| 20260508120930 | 16 | 234 | 0.0 | 0.0 | 0.00 | 0.00 | 0.00 | 94 | 1012.7 |
| 20260508120427 | 15 | 234 | 0.0 | 0.0 | 0.00 | 0.00 | 0.00 | 94 | 1012.4 |
| 20260508115924 | 15 | 234 | 0.0 | 0.0 | 0.00 | 0.00 | 0.00 | 94 | 1012.7 |
| 20260508115423 | 15 | 234 | 0.0 | 0.0 | 0.00 | 0.00 | 0.00 | 94 | 1012.4 |
| 20260508114919 | 15 | 234 | 0.0 | 0.0 | 0.00 | 0.00 | 0.00 | 94 | 1012.4 |
| 20260508114416 | 15 | 234 | 0.0 | 0.0 | 0.00 | 0.00 | 0.00 | 94 | 1012.7 |
| 20260508113912 | 15 | 234 | 0.0 | 0.0 | 0.00 | 0.00 | 0.00 | 94 | 1012.7 |
| 20260508113410 | 15 | 234 | 0.0 | 0.0 | 0.00 | 0.00 | 0.00 | 94 | 1012.7 |